Time;durP1;ratioP1;P1;durP2;ratioP2;P2;SDS_P1;SDS_P2;PMS_P1;PMS_P2;Temp;Humidity;BMP_temperature;BMP_pressure;BME280_temperature;BME280_humidity;BME280_pressure;Samples;Min_cycle;Max_cycle;Signal;HPM_P1;HPM_P2
2023/08/06 00:02:11;;;;;;;3.93;3.43;;;;;;;15.62;100.00;100003.34;5099642;28;20700;-84
2023/08/06 00:04:38;;;;;;;3.80;2.70;;;;;;;15.62;100.00;100003.34;5098964;28;20211;-81
2023/08/06 00:07:06;;;;;;;4.83;3.10;;;;;;;15.63;100.00;99989.78;5097588;28;20233;-81
2023/08/06 00:09:32;;;;;;;5.20;3.00;;;;;;;15.63;100.00;99992.47;5097994;28;20232;-83
2023/08/06 00:11:59;;;;;;;14.20;3.40;;;;;;;15.64;100.00;99985.25;5097627;28;20223;-82
2023/08/06 00:14:25;;;;;;;4.23;2.87;;;;;;;15.65;100.00;99975.38;5097523;28;20210;-83
2023/08/06 00:16:52;;;;;;;5.07;2.83;;;;;;;15.64;100.00;99979.88;5096353;28;20212;-82
2023/08/06 00:19:18;;;;;;;4.80;2.73;;;;;;;15.62;100.00;99968.44;5095938;28;20700;-82
2023/08/06 00:21:45;;;;;;;3.73;3.10;;;;;;;15.60;100.00;99968.59;5095946;28;20514;-83
2023/08/06 00:24:12;;;;;;;7.53;3.17;;;;;;;15.60;100.00;99963.22;5095502;28;20562;-81
2023/08/06 00:26:39;;;;;;;6.03;3.50;;;;;;;15.61;100.00;99967.59;5096631;28;20232;-81
2023/08/06 00:29:05;;;;;;;5.60;3.10;;;;;;;15.64;100.00;99969.16;5097129;28;20229;-84
2023/08/06 00:31:32;;;;;;;4.20;3.37;;;;;;;15.65;100.00;99967.31;5096357;28;20210;-82
2023/08/06 00:33:58;;;;;;;3.80;3.40;;;;;;;15.63;100.00;99959.41;5095929;28;20228;-83
2023/08/06 00:36:25;;;;;;;4.30;2.83;;;;;;;15.64;100.00;99955.72;5097560;28;20206;-82
2023/08/06 00:38:51;;;;;;;4.40;3.50;;;;;;;15.63;100.00;99946.81;5096891;28;20230;-82
2023/08/06 00:41:19;;;;;;;3.53;2.83;;;;;;;15.62;100.00;99944.28;5095398;28;20211;-82
2023/08/06 00:43:46;;;;;;;4.83;3.13;;;;;;;15.61;100.00;99943.44;5094802;28;20218;-82
2023/08/06 00:46:12;;;;;;;4.53;3.60;;;;;;;15.60;100.00;99940.91;5094902;28;20682;-82
2023/08/06 00:48:39;;;;;;;3.93;3.30;;;;;;;15.59;100.00;99932.00;5095660;28;20229;-83
2023/08/06 00:51:06;;;;;;;4.63;3.90;;;;;;;15.57;100.00;99925.13;5095008;28;20206;-83
2023/08/06 00:53:32;;;;;;;4.53;3.63;;;;;;;15.55;100.00;99922.56;5097733;28;20214;-83
2023/08/06 00:55:59;;;;;;;4.97;2.97;;;;;;;15.54;100.00;99923.53;5098567;28;20210;-82
2023/08/06 00:58:27;;;;;;;3.47;3.13;;;;;;;15.53;100.00;99918.31;5097583;28;20227;-82
2023/08/06 01:00:53;;;;;;;4.20;3.27;;;;;;;15.48;100.00;99916.06;5097484;28;20201;-83
2023/08/06 01:03:20;;;;;;;4.20;3.20;;;;;;;15.47;100.00;99913.53;5098236;28;20202;-83
2023/08/06 01:05:47;;;;;;;7.73;3.97;;;;;;;15.45;100.00;99923.53;5099387;28;20223;-83
2023/08/06 01:08:25;;;;;;;5.97;3.80;;;;;;;15.42;100.00;99921.16;5096007;28;20595;-82
2023/08/06 01:11:06;;;;;;;4.67;3.97;;;;;;;15.41;100.00;99914.09;5096928;28;20198;-83
2023/08/06 01:13:41;;;;;;;4.17;3.13;;;;;;;15.37;100.00;99910.03;5097397;28;20229;-83
2023/08/06 01:16:10;;;;;;;4.00;3.27;;;;;;;15.34;100.00;99913.00;5098591;28;20197;-84
2023/08/06 01:18:38;;;;;;;4.93;3.40;;;;;;;15.31;100.00;99907.91;5098212;28;20241;-85
2023/08/06 01:21:06;;;;;;;4.93;3.60;;;;;;;15.31;100.00;99902.56;5098993;28;20210;-84
2023/08/06 01:23:33;;;;;;;7.80;3.83;;;;;;;15.28;100.00;99909.91;5097489;28;20220;-84
2023/08/06 01:26:11;;;;;;;3.60;3.03;;;;;;;15.24;100.00;99897.75;5098187;28;20245;-86
2023/08/06 01:28:45;;;;;;;7.90;3.70;;;;;;;15.22;100.00;99898.91;5097024;28;20228;-83
2023/08/06 01:31:19;;;;;;;4.77;3.07;;;;;;;15.21;100.00;99892.72;5096773;28;20185;-84
2023/08/06 01:33:48;;;;;;;7.27;3.67;;;;;;;15.18;100.00;99886.78;5095664;28;20197;-83
2023/08/06 01:36:17;;;;;;;7.17;3.17;;;;;;;15.15;100.00;99893.28;5095541;28;20209;-83
2023/08/06 01:38:44;;;;;;;5.83;3.03;;;;;;;15.10;100.00;99887.50;5096141;28;20290;-84
2023/08/06 01:41:10;;;;;;;8.17;3.27;;;;;;;15.10;100.00;99883.97;5097191;28;20239;-84
2023/08/06 01:43:37;;;;;;;8.50;3.57;;;;;;;15.08;100.00;99881.41;5096660;28;20557;-84
2023/08/06 01:46:04;;;;;;;6.13;3.67;;;;;;;15.07;100.00;99878.88;5096394;28;20213;-84
2023/08/06 01:48:30;;;;;;;5.93;3.57;;;;;;;15.06;100.00;99872.69;5095890;28;20235;-85
2023/08/06 01:50:56;;;;;;;7.80;3.63;;;;;;;15.06;100.00;99875.34;5097388;28;20363;-84
2023/08/06 01:53:24;;;;;;;5.03;3.60;;;;;;;15.06;100.00;99875.34;5096459;28;20296;-84
2023/08/06 01:55:51;;;;;;;5.50;3.47;;;;;;;15.04;100.00;99874.69;5097058;28;20211;-84
2023/08/06 01:58:17;;;;;;;4.53;3.70;;;;;;;15.02;100.00;99868.63;5096678;28;20221;-83
2023/08/06 02:00:44;;;;;;;5.87;4.00;;;;;;;14.99;100.00;99863.53;5096604;28;20681;-84
2023/08/06 02:03:10;;;;;;;3.73;3.40;;;;;;;15.00;100.00;99859.88;5093955;28;20203;-85
2023/08/06 02:05:37;;;;;;;6.03;3.80;;;;;;;14.98;100.00;99859.16;5093852;28;20216;-84
2023/08/06 02:08:03;;;;;;;4.93;3.03;;;;;;;14.94;100.00;99857.75;5093877;28;20238;-84
2023/08/06 02:10:31;;;;;;;6.97;3.40;;;;;;;14.89;100.00;99860.00;5094143;28;20204;-83
2023/08/06 02:12:57;;;;;;;5.90;3.63;;;;;;;14.84;100.00;99864.97;5093352;28;20238;-84
2023/08/06 02:15:24;;;;;;;4.63;3.50;;;;;;;14.83;100.00;99865.97;5094485;28;20200;-84
2023/08/06 02:17:50;;;;;;;5.50;3.40;;;;;;;14.84;100.00;99870.34;5094824;28;20216;-84
2023/08/06 02:20:17;;;;;;;7.33;3.37;;;;;;;14.84;100.00;99865.81;5095567;28;20201;-84
2023/08/06 02:22:43;;;;;;;6.97;3.90;;;;;;;14.82;100.00;99858.91;5096047;28;20208;-85
2023/08/06 02:25:10;;;;;;;4.10;3.30;;;;;;;14.83;100.00;99866.81;5094856;28;20211;-85
2023/08/06 02:27:38;;;;;;;4.97;3.97;;;;;;;14.83;100.00;99865.97;5095756;28;20230;-83
2023/08/06 02:30:05;;;;;;;6.83;3.93;;;;;;;14.84;100.00;99868.50;5096533;28;20593;-83
2023/08/06 02:32:35;;;;;;;4.90;4.33;;;;;;;14.84;100.00;99863.16;5095844;28;20679;-83
2023/08/06 02:35:01;;;;;;;4.83;4.33;;;;;;;14.86;100.00;99852.28;5095633;28;20752;-83
2023/08/06 02:37:28;;;;;;;5.60;4.07;;;;;;;14.86;100.00;99850.44;5095389;28;20210;-83
2023/08/06 02:39:54;;;;;;;4.07;3.40;;;;;;;14.84;100.00;99846.22;5094960;28;20257;-83
2023/08/06 02:42:21;;;;;;;5.87;3.53;;;;;;;14.83;100.00;99844.53;5095532;28;20209;-85
2023/08/06 02:44:49;;;;;;;4.47;3.47;;;;;;;14.81;100.00;99838.44;5094889;28;20211;-82
2023/08/06 02:47:15;;;;;;;4.27;3.20;;;;;;;14.79;100.00;99837.75;5094618;28;20705;-82
2023/08/06 02:49:42;;;;;;;4.60;3.77;;;;;;;14.77;100.00;99829.00;5094032;28;20695;-82
2023/08/06 02:52:08;;;;;;;8.10;3.90;;;;;;;14.74;100.00;99819.41;5093576;28;20608;-84
2023/08/06 02:54:35;;;;;;;10.40;3.70;;;;;;;14.71;100.00;99821.53;5093659;28;20665;-83
2023/08/06 02:57:01;;;;;;;8.93;4.07;;;;;;;14.64;100.00;99818.59;5093946;28;20558;-84
2023/08/06 02:59:27;;;;;;;8.30;3.53;;;;;;;14.61;100.00;99815.34;5093734;28;20561;-84
2023/08/06 03:01:55;;;;;;;6.17;3.57;;;;;;;14.52;100.00;99815.19;5093314;28;20208;-83
2023/08/06 03:04:22;;;;;;;6.53;2.97;;;;;;;14.47;100.00;99806.75;5094724;28;20219;-83
2023/08/06 03:06:50;;;;;;;3.83;3.33;;;;;;;14.43;100.00;99805.34;5094397;28;20206;-81
2023/08/06 03:09:16;;;;;;;4.23;3.70;;;;;;;14.44;100.00;99801.69;5093781;28;20230;-83
2023/08/06 03:11:43;;;;;;;4.07;3.67;;;;;;;14.46;100.00;99794.34;5093731;28;20217;-84
2023/08/06 03:14:10;;;;;;;4.53;3.80;;;;;;;14.48;100.00;99789.69;5093657;28;20197;-83
2023/08/06 03:16:37;;;;;;;4.33;3.70;;;;;;;14.50;100.00;99795.78;5093691;28;20214;-85
2023/08/06 03:19:05;;;;;;;5.77;4.43;;;;;;;14.50;100.00;99790.41;5093380;28;20224;-84
2023/08/06 03:21:31;;;;;;;4.80;3.67;;;;;;;14.53;100.00;99790.09;5093770;28;20215;-85
2023/08/06 03:23:58;;;;;;;6.30;4.40;;;;;;;14.56;100.00;99775.56;5094291;28;20577;-84
2023/08/06 03:26:24;;;;;;;4.63;3.93;;;;;;;14.59;100.00;99792.22;5093646;28;20204;-85
2023/08/06 03:28:51;;;;;;;4.43;3.83;;;;;;;14.61;100.00;99777.81;5094172;28;20235;-85
2023/08/06 03:31:17;;;;;;;6.07;4.13;;;;;;;14.61;100.00;99780.50;5094984;28;20207;-84
2023/08/06 03:33:44;;;;;;;4.83;4.27;;;;;;;14.61;100.00;99780.50;5097756;28;20201;-83
2023/08/06 03:36:11;;;;;;;5.27;4.40;;;;;;;14.65;100.00;99784.59;5096913;28;20212;-84
2023/08/06 03:38:38;;;;;;;4.50;4.10;;;;;;;14.64;100.00;99789.13;5097252;28;20722;-84
2023/08/06 03:41:04;;;;;;;6.30;3.83;;;;;;;14.66;100.00;99778.25;5097679;28;20208;-85
2023/08/06 03:43:31;;;;;;;5.03;4.27;;;;;;;14.69;100.00;99777.97;5097623;28;20217;-84
2023/08/06 03:45:58;;;;;;;4.97;4.00;;;;;;;14.68;100.00;99778.94;5097263;28;20211;-84
2023/08/06 03:48:24;;;;;;;5.17;4.33;;;;;;;14.71;100.00;99781.31;5096342;28;20232;-84
2023/08/06 03:50:50;;;;;;;6.47;4.43;;;;;;;14.70;100.00;99776.94;5096286;28;20201;-83
2023/08/06 03:53:18;;;;;;;6.20;4.50;;;;;;;14.71;100.00;99776.81;5096274;28;20212;-84
2023/08/06 03:55:45;;;;;;;6.87;4.90;;;;;;;14.70;100.00;99774.25;5096542;28;20204;-85
2023/08/06 03:58:11;;;;;;;4.97;3.80;;;;;;;14.68;100.00;99776.28;5096647;28;20569;-84
2023/08/06 04:00:38;;;;;;;7.17;3.77;;;;;;;14.63;100.00;99765.97;5096431;28;20571;-85
2023/08/06 04:03:04;;;;;;;5.43;4.10;;;;;;;14.61;100.00;99761.75;5096385;28;20212;-84
2023/08/06 04:05:32;;;;;;;8.47;4.03;;;;;;;14.56;100.00;99757.66;5096000;28;20215;-84
2023/08/06 04:07:59;;;;;;;5.37;3.83;;;;;;;14.54;100.00;99762.31;5096598;28;20228;-84
2023/08/06 04:10:28;;;;;;;5.30;3.70;;;;;;;14.53;100.00;99751.75;5096265;28;20243;-85
2023/08/06 04:12:54;;;;;;;5.43;4.20;;;;;;;14.52;100.00;99761.59;5096458;28;20204;-84
2023/08/06 04:15:21;;;;;;;8.60;4.33;;;;;;;14.51;100.00;99759.09;5096290;28;20656;-84
2023/08/06 04:17:47;;;;;;;13.03;4.70;;;;;;;14.50;100.00;99763.63;5095916;28;20598;-84
2023/08/06 04:20:14;;;;;;;15.87;5.77;;;;;;;14.50;100.00;99763.63;5096617;28;20208;-83
2023/08/06 04:22:40;;;;;;;6.13;4.37;;;;;;;14.51;100.00;99757.25;5096822;28;20212;-84
2023/08/06 04:25:07;;;;;;;6.97;4.97;;;;;;;14.50;100.00;99763.63;5096658;28;20200;-84
2023/08/06 04:27:36;;;;;;;5.43;4.80;;;;;;;14.49;100.00;99756.56;5096126;28;20212;-85
2023/08/06 04:30:03;;;;;;;6.77;4.27;;;;;;;14.46;100.00;99751.50;5095392;28;20232;-86
2023/08/06 04:32:31;;;;;;;4.90;4.40;;;;;;;14.42;100.00;99755.44;5095979;28;20242;-84
2023/08/06 04:34:58;;;;;;;5.57;4.73;;;;;;;14.44;100.00;99761.50;5096105;28;20235;-82
2023/08/06 04:37:24;;;;;;;6.10;5.40;;;;;;;14.44;100.00;99760.66;5097115;28;20669;-83
2023/08/06 04:39:51;;;;;;;6.50;5.57;;;;;;;14.46;100.00;99761.34;5096803;28;20228;-84
2023/08/06 04:42:17;;;;;;;6.07;5.07;;;;;;;14.46;100.00;99766.72;5096047;28;20212;-83
2023/08/06 04:44:46;;;;;;;6.70;5.73;;;;;;;14.46;100.00;99764.88;5096195;28;20215;-85
2023/08/06 04:47:12;;;;;;;6.73;5.30;;;;;;;14.46;100.00;99767.56;5097353;28;20204;-85
2023/08/06 04:49:38;;;;;;;5.57;4.97;;;;;;;14.45;100.00;99776.59;5096567;28;20234;-84
2023/08/06 04:52:06;;;;;;;7.87;4.53;;;;;;;14.44;100.00;99780.25;5095661;28;20200;-83
2023/08/06 04:54:32;;;;;;;7.47;4.43;;;;;;;14.43;100.00;99775.88;5096110;28;20205;-83
2023/08/06 04:56:59;;;;;;;6.90;4.90;;;;;;;14.43;100.00;99773.19;5096404;28;20215;-86
2023/08/06 04:59:25;;;;;;;7.77;5.20;;;;;;;14.42;100.00;99771.50;5101257;28;20220;-85
2023/08/06 05:01:53;;;;;;;7.30;4.77;;;;;;;14.38;100.00;99764.72;5097063;28;20219;-85
2023/08/06 05:04:20;;;;;;;7.43;5.63;;;;;;;14.41;100.00;99774.31;5100274;28;20208;-83
2023/08/06 05:06:46;;;;;;;7.07;5.70;;;;;;;14.40;100.00;99769.94;5100322;28;20211;-85
2023/08/06 05:09:12;;;;;;;6.73;5.70;;;;;;;14.41;100.00;99763.63;5101297;28;20228;-83
2023/08/06 05:11:39;;;;;;;7.50;5.77;;;;;;;14.47;100.00;99769.25;5099724;28;20212;-84
2023/08/06 05:14:05;;;;;;;9.47;5.87;;;;;;;14.48;100.00;99770.09;5101139;28;20199;-85
2023/08/06 05:16:32;;;;;;;6.57;5.40;;;;;;;14.47;100.00;99768.41;5100284;28;20211;-84
2023/08/06 05:19:00;;;;;;;9.33;5.40;;;;;;;14.47;100.00;99769.25;5099115;28;20232;-84
2023/08/06 05:21:26;;;;;;;7.63;5.37;;;;;;;14.49;100.00;99774.47;5099502;28;20204;-85
2023/08/06 05:23:53;;;;;;;7.10;5.50;;;;;;;14.49;100.00;99775.31;5099807;28;20212;-83
2023/08/06 05:26:19;;;;;;;8.13;5.60;;;;;;;14.53;100.00;99770.50;5097734;28;20231;-85
2023/08/06 05:28:46;;;;;;;6.67;5.60;;;;;;;14.54;100.00;99773.03;5099806;28;20254;-85
2023/08/06 05:31:12;;;;;;;8.33;5.73;;;;;;;14.56;100.00;99770.22;5099103;28;20208;-85
2023/08/06 05:33:39;;;;;;;7.47;5.37;;;;;;;14.54;100.00;99770.34;5098232;28;20204;-85
2023/08/06 05:36:06;;;;;;;8.83;5.93;;;;;;;14.58;100.00;99770.91;5094587;28;20212;-82
2023/08/06 05:38:33;;;;;;;7.23;5.73;;;;;;;14.59;100.00;99765.41;5095499;28;20834;-85
2023/08/06 05:40:59;;;;;;;6.90;5.00;;;;;;;14.62;100.00;99761.59;5095972;28;20222;-82
2023/08/06 05:43:26;;;;;;;7.60;6.77;;;;;;;14.66;100.00;99762.16;5096355;28;20204;-84
2023/08/06 05:45:52;;;;;;;9.00;5.30;;;;;;;14.70;100.00;99766.22;5097944;28;20227;-86
2023/08/06 05:48:19;;;;;;;7.00;5.90;;;;;;;14.73;100.00;99773.97;5095258;28;20235;-84
2023/08/06 05:50:45;;;;;;;6.80;5.40;;;;;;;14.76;100.00;99773.69;5095368;28;20208;-86
2023/08/06 05:53:13;;;;;;;9.20;6.27;;;;;;;14.84;100.00;99774.69;5095282;28;20683;-84
2023/08/06 05:55:40;;;;;;;5.93;5.33;;;;;;;14.91;100.00;99766.88;5096064;28;20540;-84
2023/08/06 05:58:06;;;;;;;9.73;5.50;;;;;;;15.00;100.00;99760.66;5096655;28;20572;-85
2023/08/06 06:00:33;;;;;;;7.83;5.67;;;;;;;15.13;100.00;99768.34;5096192;28;20257;-83
2023/08/06 06:02:59;;;;;;;6.03;5.43;;;;;;;15.21;100.00;99752.38;5095450;28;20207;-84
2023/08/06 06:05:26;;;;;;;6.33;4.73;;;;;;;15.33;100.00;99751.19;5094998;28;20214;-84
2023/08/06 06:07:52;;;;;;;4.97;4.20;;;;;;;15.43;100.00;99743.91;5095217;28;20209;-84
2023/08/06 06:10:20;;;;;;;4.40;4.00;;;;;;;15.50;100.00;99741.47;5094688;28;20787;-81
2023/08/06 06:12:46;;;;;;;4.20;3.77;;;;;;;15.57;100.00;99745.28;5094421;28;20212;-84
2023/08/06 06:15:13;;;;;;;5.77;4.27;;;;;;;15.63;100.00;99753.56;5093786;28;20206;-81
2023/08/06 06:17:39;;;;;;;4.43;3.97;;;;;;;15.72;100.00;99749.16;5094336;28;20658;-84
2023/08/06 06:20:07;;;;;;;4.50;3.40;;;;;;;15.79;100.00;99747.53;5094308;28;20228;-85
2023/08/06 06:22:34;;;;;;;5.90;3.63;;;;;;;15.85;100.00;99741.56;5094152;28;20292;-82
2023/08/06 06:25:00;;;;;;;4.93;3.37;;;;;;;15.93;100.00;99741.66;5094533;28;20209;-83
2023/08/06 06:27:28;;;;;;;4.23;3.50;;;;;;;16.01;100.00;99735.50;5094693;28;20213;-84
2023/08/06 06:29:55;;;;;;;4.50;3.13;;;;;;;16.12;100.00;99734.44;5094270;28;20235;-82
2023/08/06 06:32:22;;;;;;;4.10;3.10;;;;;;;16.19;100.00;99743.53;5094267;28;20212;-83
2023/08/06 06:34:48;;;;;;;3.80;2.50;;;;;;;16.27;100.00;99731.03;5094407;28;20206;-83
2023/08/06 06:37:15;;;;;;;6.17;3.00;;;;;;;16.38;100.00;99732.59;5094963;28;20218;-83
2023/08/06 06:39:41;;;;;;;3.13;2.80;;;;;;;16.47;100.00;99737.06;5094511;28;20585;-83
2023/08/06 06:42:07;;;;;;;3.73;3.40;;;;;;;16.60;100.00;99732.09;5095175;28;20665;-83
2023/08/06 06:44:35;;;;;;;5.20;3.33;;;;;;;16.72;100.00;99729.19;5095493;28;20650;-82
2023/08/06 06:47:02;;;;;;;4.47;3.60;;;;;;;16.79;100.00;99732.94;5094948;28;20685;-83
2023/08/06 06:49:28;;;;;;;4.60;3.33;;;;;;;16.89;100.00;99725.56;5094696;28;20610;-83
2023/08/06 06:51:55;;;;;;;2.60;2.40;;;;;;;17.04;100.00;99723.97;5094901;28;20210;-83
2023/08/06 06:54:21;;;;;;;3.17;2.57;;;;;;;17.18;100.00;99725.22;5094482;28;20205;-81
2023/08/06 06:56:48;;;;;;;4.20;2.67;;;;;;;17.32;99.22;99724.59;5093896;28;20212;-83
2023/08/06 06:59:14;;;;;;;2.73;2.50;;;;;;;17.44;99.16;99719.75;5093678;28;20227;-83
2023/08/06 07:01:42;;;;;;;4.37;2.53;;;;;;;17.58;97.26;99719.97;5094605;28;20217;-84
2023/08/06 07:04:08;;;;;;;3.97;2.33;;;;;;;17.72;96.15;99717.69;5096014;28;20571;-84
2023/08/06 07:06:35;;;;;;;4.90;2.17;;;;;;;17.82;95.64;99713.81;5095518;28;20203;-83
2023/08/06 07:09:01;;;;;;;2.50;2.30;;;;;;;17.94;94.58;99717.03;5097893;28;20241;-83
2023/08/06 07:11:28;;;;;;;2.60;2.40;;;;;;;18.05;92.49;99716.72;5096774;28;20297;-82
2023/08/06 07:13:57;;;;;;;2.43;2.20;;;;;;;18.17;91.45;99711.81;5096334;28;20526;-81
2023/08/06 07:16:24;;;;;;;3.60;1.93;;;;;;;18.31;90.55;99721.91;5096159;28;20216;-83
2023/08/06 07:18:52;;;;;;;2.53;1.70;;;;;;;18.42;90.73;99718.06;5095814;28;20230;-81
2023/08/06 07:21:19;;;;;;;1.93;1.83;;;;;;;18.57;88.12;99719.88;5096316;28;20260;-82
2023/08/06 07:23:49;;;;;;;1.87;1.60;;;;;;;18.63;86.35;99727.31;5096582;28;20664;-82
2023/08/06 07:26:15;;;;;;;2.20;1.83;;;;;;;18.66;85.53;99718.88;5096709;28;20264;-83
2023/08/06 07:28:42;;;;;;;2.47;1.90;;;;;;;18.73;86.04;99717.19;5096269;28;20308;-83
2023/08/06 07:31:08;;;;;;;2.37;2.00;;;;;;;18.85;85.02;99706.03;5096588;28;20203;-82
2023/08/06 07:33:35;;;;;;;1.90;1.63;;;;;;;18.93;84.52;99709.56;5096894;28;20209;-84
2023/08/06 07:36:08;;;;;;;1.97;1.73;;;;;;;19.04;83.92;99708.31;5099837;28;20205;-84
2023/08/06 07:38:35;;;;;;;1.90;1.57;;;;;;;19.14;83.28;99706.28;5100576;28;20225;-83
2023/08/06 07:41:02;;;;;;;2.03;1.80;;;;;;;19.20;82.32;99713.66;5099198;28;20256;-82
2023/08/06 07:43:28;;;;;;;3.07;1.67;;;;;;;19.29;81.64;99717.19;5099837;28;20202;-82
2023/08/06 07:45:58;;;;;;;2.30;1.70;;;;;;;19.31;81.00;99707.88;5097356;28;20547;-83
2023/08/06 07:48:24;;;;;;;2.00;1.90;;;;;;;19.31;81.27;99713.28;5098617;28;20231;-81
2023/08/06 07:50:53;;;;;;;2.17;1.97;;;;;;;19.34;80.87;99715.63;5096953;28;20218;-84
2023/08/06 07:53:21;;;;;;;1.90;1.70;;;;;;;19.43;80.87;99716.44;5099326;28;20281;-83
2023/08/06 07:55:50;;;;;;;1.60;1.50;;;;;;;19.51;80.29;99712.88;5098741;28;20211;-83
2023/08/06 07:58:17;;;;;;;1.93;1.60;;;;;;;19.60;80.10;99709.09;5099419;28;20223;-83
2023/08/06 08:00:45;;;;;;;2.90;1.70;;;;;;;19.65;79.26;99706.72;5098874;28;20207;-82
2023/08/06 08:03:12;;;;;;;2.37;1.80;;;;;;;19.66;78.17;99703.84;5098506;28;20218;-83
2023/08/06 08:05:38;;;;;;;1.67;1.27;;;;;;;19.69;77.76;99691.84;5097910;28;20226;-82
2023/08/06 08:08:05;;;;;;;1.93;1.57;;;;;;;19.78;77.72;99693.47;5098475;28;20235;-81
2023/08/06 08:10:33;;;;;;;1.77;1.47;;;;;;;19.88;77.12;99702.19;5097702;28;20275;-83
2023/08/06 08:12:59;;;;;;;1.77;1.45;;;;;;;19.92;76.42;99699.94;5061210;28;1071930;-83
2023/08/06 08:15:26;;;;;;;1.75;1.48;;;;;;;19.98;76.34;99696.53;5099204;28;20213;-82
2023/08/06 08:17:53;;;;;;;2.03;1.67;;;;;;;20.00;75.47;99694.50;5099099;28;20234;-83
2023/08/06 08:20:19;;;;;;;3.00;1.63;;;;;;;20.00;74.92;99698.03;5096524;28;20199;-81
2023/08/06 08:22:46;;;;;;;2.20;1.63;;;;;;;20.03;74.83;99692.28;5096750;28;20199;-82
2023/08/06 08:25:12;;;;;;;1.60;1.50;;;;;;;20.06;74.31;99691.88;5096662;28;20210;-82
2023/08/06 08:27:40;;;;;;;2.08;1.67;;;;;;;20.13;74.68;99696.56;5096482;28;20207;-82
2023/08/06 08:30:08;;;;;;;1.58;1.48;;;;;;;20.22;75.06;99695.50;5095694;28;20235;-81
2023/08/06 08:32:34;;;;;;;2.42;1.58;;;;;;;20.28;74.76;99695.59;5095480;28;20200;-81
2023/08/06 08:35:01;;;;;;;2.35;1.50;;;;;;;20.34;74.97;99694.03;5094931;28;20203;-80
2023/08/06 08:37:27;;;;;;;1.58;1.48;;;;;;;20.36;74.63;99698.25;5094763;28;20208;-83
2023/08/06 08:39:54;;;;;;;3.10;1.98;;;;;;;20.39;74.85;99695.19;5095665;28;20851;-82
2023/08/06 08:42:21;;;;;;;1.90;1.58;;;;;;;20.49;74.91;99694.09;5096051;28;20204;-82
2023/08/06 08:44:49;;;;;;;3.70;1.67;;;;;;;20.58;73.84;99696.53;5095432;28;20211;-81
2023/08/06 08:47:16;;;;;;;2.42;2.00;;;;;;;20.64;72.42;99681.41;5095955;28;20204;-82
2023/08/06 08:49:44;;;;;;;2.25;1.60;;;;;;;20.68;72.95;99683.56;5094501;28;20232;-81
2023/08/06 08:52:12;;;;;;;2.95;1.60;;;;;;;20.78;72.60;99678.72;5094623;28;20212;-83
2023/08/06 08:54:39;;;;;;;2.40;1.50;;;;;;;20.84;71.35;99685.25;5095783;28;20295;-82
2023/08/06 08:57:06;;;;;;;1.70;1.58;;;;;;;20.93;70.73;99694.13;5095471;28;20212;-83
2023/08/06 08:59:34;;;;;;;1.70;1.52;;;;;;;20.98;69.94;99688.97;5095305;28;20230;-84
2023/08/06 09:02:03;;;;;;;3.25;1.75;;;;;;;20.99;69.86;99677.13;5098285;28;20565;-83
2023/08/06 09:04:31;;;;;;;1.73;1.60;;;;;;;20.97;68.67;99685.44;5095333;28;20303;-82
2023/08/06 09:07:00;;;;;;;3.60;1.60;;;;;;;21.05;69.13;99676.38;5094542;28;20329;-81
2023/08/06 09:09:29;;;;;;;3.15;1.70;;;;;;;21.14;69.44;99676.06;5095015;28;20220;-82
2023/08/06 09:12:00;;;;;;;2.15;1.83;;;;;;;21.17;68.31;99677.56;5095260;28;20215;-81
2023/08/06 09:14:27;;;;;;;1.50;1.40;;;;;;;21.14;69.00;99672.53;5094478;28;20188;-81
2023/08/06 09:16:54;;;;;;;2.50;1.60;;;;;;;21.18;67.95;99681.97;5094896;28;20200;-82
2023/08/06 09:19:22;;;;;;;2.65;1.95;;;;;;;21.29;68.54;99669.84;5095072;28;20715;-83
2023/08/06 09:21:52;;;;;;;2.05;1.50;;;;;;;21.40;68.55;99670.19;5095185;28;20227;-84
2023/08/06 09:24:18;;;;;;;1.50;1.40;;;;;;;21.55;68.74;99672.00;5096250;28;20208;-83
2023/08/06 09:26:46;;;;;;;2.22;1.50;;;;;;;21.75;67.96;99667.66;5095012;28;20200;-84
2023/08/06 09:29:13;;;;;;;1.67;1.55;;;;;;;21.93;66.77;99673.47;5094943;28;20227;-83
2023/08/06 09:31:43;;;;;;;2.20;1.77;;;;;;;21.97;65.44;99668.50;5094627;28;20257;-84
2023/08/06 09:34:15;;;;;;;1.85;1.48;;;;;;;22.01;65.62;99662.53;5095023;28;20200;-84
2023/08/06 09:36:44;;;;;;;2.33;1.48;;;;;;;22.04;65.84;99656.69;5095294;28;20253;-85
2023/08/06 09:39:15;;;;;;;1.80;1.50;;;;;;;22.12;65.91;99672.00;5095505;28;20231;-84
2023/08/06 09:41:41;;;;;;;1.42;1.25;;;;;;;22.25;65.75;99673.97;5094396;28;20258;-83
2023/08/06 09:44:17;;;;;;;3.85;1.70;;;;;;;22.39;63.63;99664.94;5094460;28;20764;-83
2023/08/06 09:46:43;;;;;;;2.35;1.50;;;;;;;22.44;62.66;99674.13;5093873;28;20257;-83
2023/08/06 09:49:10;;;;;;;1.92;1.15;;;;;;;22.51;61.59;99655.22;5094467;28;20699;-84
2023/08/06 09:51:39;;;;;;;1.30;1.17;;;;;;;22.57;62.01;99656.31;5094382;28;20307;-84
2023/08/06 09:54:08;;;;;;;3.53;1.65;;;;;;;22.69;61.54;99663.69;5093082;28;20255;-82
2023/08/06 09:56:37;;;;;;;2.28;1.50;;;;;;;22.77;60.37;99660.81;5093375;28;20261;-84
2023/08/06 09:59:05;;;;;;;1.40;1.30;;;;;;;22.81;59.99;99659.38;5097743;28;20259;-84
2023/08/06 10:01:33;;;;;;;1.52;1.30;;;;;;;22.89;60.01;99655.69;5096718;28;20207;-82
2023/08/06 10:04:01;;;;;;;1.65;1.25;;;;;;;22.96;59.00;99655.69;5099148;28;20207;-83
2023/08/06 10:06:29;;;;;;;2.65;1.40;;;;;;;22.98;59.20;99653.63;5094805;28;20203;-81
2023/08/06 10:08:56;;;;;;;1.90;1.20;;;;;;;22.99;58.39;99644.44;5093825;28;20232;-81
2023/08/06 10:11:25;;;;;;;2.35;1.40;;;;;;;23.04;59.23;99652.84;5093454;28;20238;-81
2023/08/06 10:13:56;;;;;;;3.67;1.83;;;;;;;23.09;59.17;99645.75;5094099;28;20693;-81
2023/08/06 10:16:23;;;;;;;1.55;1.20;;;;;;;23.13;59.64;99641.59;5093534;28;20195;-82
2023/08/06 10:18:51;;;;;;;1.30;1.20;;;;;;;23.18;59.25;99647.25;5093015;28;20588;-81
2023/08/06 10:21:17;;;;;;;1.40;1.30;;;;;;;23.22;59.51;99638.69;5094658;28;20200;-84
2023/08/06 10:23:44;;;;;;;2.35;1.40;;;;;;;23.20;56.70;99634.31;5098407;28;20215;-84
2023/08/06 10:26:10;;;;;;;1.63;1.27;;;;;;;23.21;56.73;99632.44;5096987;28;20740;-83
2023/08/06 10:28:39;;;;;;;1.70;1.50;;;;;;;23.26;55.46;99632.66;5097043;28;20228;-84
2023/08/06 10:31:06;;;;;;;2.08;1.17;;;;;;;23.32;56.57;99626.41;5097274;28;20227;-84
2023/08/06 10:33:44;;;;;;;1.23;1.13;;;;;;;23.39;56.43;99621.84;5097872;28;20211;-84
2023/08/06 10:36:11;;;;;;;1.52;1.40;;;;;;;23.44;56.39;99621.22;5097329;28;20207;-83
2023/08/06 10:38:45;;;;;;;1.20;1.10;;;;;;;23.47;55.80;99616.19;5098162;28;20729;-82
2023/08/06 10:41:16;;;;;;;1.08;0.98;;;;;;;23.46;55.00;99614.56;5094054;28;20187;-85
2023/08/06 10:43:44;;;;;;;2.45;1.40;;;;;;;23.44;54.26;99611.19;5086080;28;20205;-83
2023/08/06 10:46:21;;;;;;;1.77;1.20;;;;;;;23.48;53.60;99617.88;5087054;28;20199;-84
2023/08/06 10:48:47;;;;;;;1.67;1.00;;;;;;;23.53;53.59;99604.53;5098025;28;20222;-84
2023/08/06 10:51:14;;;;;;;1.50;1.10;;;;;;;23.62;55.04;99602.47;5097941;28;20262;-82
2023/08/06 10:53:43;;;;;;;1.40;1.27;;;;;;;23.71;54.35;99597.66;5105237;28;20204;-84
2023/08/06 10:56:14;;;;;;;1.50;1.30;;;;;;;23.70;53.70;99590.56;5092151;28;20241;-82
2023/08/06 10:58:41;;;;;;;2.05;1.23;;;;;;;23.67;53.34;99594.53;5092323;28;20634;-82
2023/08/06 11:01:09;;;;;;;2.08;1.42;;;;;;;23.69;52.40;99592.44;5094073;28;20200;-82
2023/08/06 11:03:36;;;;;;;1.40;1.30;;;;;;;23.68;52.11;99584.50;5093626;28;20212;-81
2023/08/06 11:06:02;;;;;;;1.13;1.00;;;;;;;23.68;51.67;99587.19;5090539;28;20234;-79
2023/08/06 11:08:33;;;;;;;1.15;1.02;;;;;;;23.70;51.51;99582.41;5088888;28;20230;-79
2023/08/06 11:11:09;;;;;;;1.58;1.30;;;;;;;23.73;52.51;99585.53;5093890;28;20231;-79
2023/08/06 11:13:35;;;;;;;1.95;1.20;;;;;;;23.73;51.52;99587.44;5085800;28;20211;-79
2023/08/06 11:16:02;;;;;;;1.58;1.23;;;;;;;23.73;50.60;99585.53;5090867;28;20196;-78
2023/08/06 11:18:30;;;;;;;1.90;1.00;;;;;;;23.72;49.89;99572.16;5088315;28;20274;-79
2023/08/06 11:20:59;;;;;;;1.45;1.13;;;;;;;23.73;49.62;99576.56;5088818;28;20550;-78
2023/08/06 11:23:27;;;;;;;1.75;1.02;;;;;;;23.77;50.50;99573.22;5087470;28;20713;-78
2023/08/06 11:25:54;;;;;;;1.00;1.00;;;;;;;23.81;49.99;99568.22;5086175;28;20196;-79
2023/08/06 11:28:21;;;;;;;1.30;1.08;;;;;;;23.84;50.47;99570.47;5082513;28;20711;-79
2023/08/06 11:30:48;;;;;;;2.20;1.20;;;;;;;23.87;50.05;99561.91;5080553;28;20223;-78